Main page
METAR-TAF:

METAR-TAF

Airports :

Deauville – Normandie Airport

Deauville, France

latitude: 49-21-55N, longitude: 000-09-16E, elevation: 146 m

Current weather observation

The report was made 20 minutes ago, at 20:00 UTC
Wind 10 kt from the West
Temperature 16°C
Humidity 77%
Pressure 1013 hPa
Visibility 10 km or more
no clouds below 1500 m and no cumulonimbus

METAR: LFRG 282000Z AUTO 26010KT CAVOK 16/12 Q1013 NOSIG

Time: 22:20 (20:20 UTC)

Forecast

The report was made 6 hours and 20 minutes ago, at 14:00 UTC
Forecast valid from 28 at 15 UTC to 28 at 24 UTC
Wind 12 kt from the West/Southwest
Visibility 10 km or more
Scattered clouds at a height of 4000 ft
Probability 30% :
Temporary
from 28 at 15 UTC to 28 at 19 UTC
Wind 15 kt from the West/Southwest with gusts up to 25 kt
Scattered clouds at a height of 3000 ft, Towering cumulus.
rain showers

TAF: LFRG 281400Z 2815/2824 24012KT 9999 SCT040 PROB30 TEMPO 2815/2819 24015G25KT SHRA SCT030TCU

Weather observations and forecasts of more than 4000 airports (METAR and TAF reports).

The available stations are represented by yellow and red dots on the map.

Hover mouse over dot to see the name of the station.

Then click to see weather observations and forecasts.

To change the map : click on the green buttons with a black cross to zoom in, on the green button with a dash to zoom out, or on the green arrows for adjacent maps.


METAR-TAF: